Time;durP1;ratioP1;P1;durP2;ratioP2;P2;SDS_P1;SDS_P2;PMS_P1;PMS_P2;Temp;Humidity;BMP_temperature;BMP_pressure;BME280_temperature;BME280_humidity;BME280_pressure;Samples;Min_cycle;Max_cycle;Signal;HPM_P1;HPM_P2
2023/05/16 00:00:34;;;;;;;6.70;6.20;;;;;;;;;;5069353;27;20245;-52
2023/05/16 00:03:01;;;;;;;7.55;6.95;;;;;;;;;;5063511;27;20231;-54
2023/05/16 00:05:28;;;;;;;8.13;7.32;;;;;;;;;;5070660;27;20314;-53
2023/05/16 00:07:54;;;;;;;6.85;6.28;;;;;;;;;;5062674;27;20235;-53
2023/05/16 00:10:21;;;;;;;7.38;6.68;;;;;;;;;;5069711;27;20260;-53
2023/05/16 00:12:50;;;;;;;8.10;7.30;;;;;;;;;;5062036;27;20250;-53
2023/05/16 00:15:17;;;;;;;8.45;7.68;;;;;;;;;;5071230;27;20266;-53
2023/05/16 00:17:46;;;;;;;8.18;6.97;;;;;;;;;;5062406;27;20238;-52
2023/05/16 00:20:12;;;;;;;8.05;7.25;;;;;;;;;;5070784;27;20231;-53
2023/05/16 00:22:39;;;;;;;7.88;6.97;;;;;;;;;;5058478;27;20246;-52
2023/05/16 00:25:07;;;;;;;8.65;7.90;;;;;;;;;;5064371;27;20234;-53
2023/05/16 00:27:34;;;;;;;11.15;8.25;;;;;;;;;;5061959;27;20320;-52
2023/05/16 00:30:01;;;;;;;10.45;8.52;;;;;;;;;;5066241;28;20284;-54
2023/05/16 00:32:27;;;;;;;9.38;8.48;;;;;;;;;;5061794;28;20247;-52
2023/05/16 00:34:56;;;;;;;8.90;8.00;;;;;;;;;;5066876;28;20235;-52
2023/05/16 00:37:22;;;;;;;8.45;7.75;;;;;;;;;;5064482;28;20276;-53
2023/05/16 00:39:49;;;;;;;8.80;8.10;;;;;;;;;;5069153;28;20322;-53
2023/05/16 00:42:16;;;;;;;8.70;7.90;;;;;;;;;;5064410;28;20234;-53
2023/05/16 00:44:42;;;;;;;9.40;8.60;;;;;;;;;;5061098;28;20765;-52
2023/05/16 00:47:09;;;;;;;8.95;8.15;;;;;;;;;;5064701;28;20222;-52
2023/05/16 00:49:35;;;;;;;13.82;9.20;;;;;;;;;;5072237;28;20234;-53
2023/05/16 00:52:03;;;;;;;9.32;8.60;;;;;;;;;;5078001;28;20307;-51
2023/05/16 00:54:30;;;;;;;8.73;7.80;;;;;;;;;;5056094;28;20783;-53
2023/05/16 00:56:57;;;;;;;10.68;9.60;;;;;;;;;;5070586;28;20248;-53
2023/05/16 00:59:24;;;;;;;10.35;9.38;;;;;;;;;;5080256;28;20314;-52
2023/05/16 01:01:51;;;;;;;11.80;10.25;;;;;;;;;;5062859;28;20281;-51
2023/05/16 01:04:18;;;;;;;10.98;9.98;;;;;;;;;;5060068;28;21041;-52
2023/05/16 01:06:45;;;;;;;11.90;9.93;;;;;;;;;;5061985;28;20314;-52
2023/05/16 01:09:13;;;;;;;10.73;9.63;;;;;;;;;;5057410;28;20232;-52
2023/05/16 01:11:44;;;;;;;11.10;10.10;;;;;;;;;;5051620;28;20250;-52
2023/05/16 01:14:16;;;;;;;11.70;10.70;;;;;;;;;;5065479;28;20246;-53
2023/05/16 01:16:47;;;;;;;11.60;10.52;;;;;;;;;;5064256;27;20239;-52
2023/05/16 01:19:17;;;;;;;12.95;10.25;;;;;;;;;;5062407;28;20236;-52
2023/05/16 01:21:48;;;;;;;11.15;10.25;;;;;;;;;;5063403;28;20226;-53
2023/05/16 01:24:23;;;;;;;11.82;10.63;;;;;;;;;;5052717;28;20231;-53
2023/05/16 01:26:52;;;;;;;11.93;10.82;;;;;;;;;;5063021;28;20310;-52
2023/05/16 01:29:19;;;;;;;11.02;9.90;;;;;;;;;;5059378;27;20288;-52
2023/05/16 01:31:46;;;;;;;13.57;12.00;;;;;;;;;;5070355;28;20231;-53
2023/05/16 01:34:12;;;;;;;11.68;10.63;;;;;;;;;;5067821;28;20257;-53
2023/05/16 01:36:43;;;;;;;12.38;11.18;;;;;;;;;;5068228;28;20257;-53
2023/05/16 01:39:15;;;;;;;12.80;11.02;;;;;;;;;;5044777;28;20231;-53
2023/05/16 01:41:47;;;;;;;11.45;10.35;;;;;;;;;;5048097;28;20239;-52
2023/05/16 01:44:19;;;;;;;11.80;10.43;;;;;;;;;;5064489;28;20665;-52
2023/05/16 01:46:47;;;;;;;11.55;10.35;;;;;;;;;;5047472;28;20228;-53
2023/05/16 01:49:17;;;;;;;12.30;11.15;;;;;;;;;;5053740;28;20227;-52
2023/05/16 01:51:45;;;;;;;12.77;10.98;;;;;;;;;;5044424;28;20306;-53
2023/05/16 01:54:13;;;;;;;12.60;10.65;;;;;;;;;;5064864;28;20984;-53
2023/05/16 01:56:40;;;;;;;11.43;10.43;;;;;;;;;;5063711;28;20247;-53
2023/05/16 01:59:08;;;;;;;12.05;9.15;;;;;;;;;;5055032;28;20235;-53
2023/05/16 02:01:36;;;;;;;12.00;10.82;;;;;;;;;;5054145;28;20238;-53
2023/05/16 02:04:02;;;;;;;11.40;10.20;;;;;;;;;;5055822;28;20235;-52
2023/05/16 02:06:29;;;;;;;15.13;10.35;;;;;;;;;;5048360;28;20228;-54
2023/05/16 02:08:56;;;;;;;12.25;10.82;;;;;;;;;;5034175;28;20244;-53
2023/05/16 02:11:22;;;;;;;12.07;10.88;;;;;;;;;;5041910;28;20227;-53
2023/05/16 02:13:49;;;;;;;11.57;10.25;;;;;;;;;;5042752;28;20315;-52
2023/05/16 02:16:15;;;;;;;12.13;10.30;;;;;;;;;;5058378;28;20230;-53
2023/05/16 02:18:44;;;;;;;14.00;9.60;;;;;;;;;;5048902;28;20336;-51
2023/05/16 02:21:11;;;;;;;11.63;10.48;;;;;;;;;;5061102;28;20633;-52
2023/05/16 02:23:38;;;;;;;12.20;10.90;;;;;;;;;;5056152;28;20240;-52
2023/05/16 02:26:05;;;;;;;12.68;11.45;;;;;;;;;;5062848;28;20602;-52
2023/05/16 02:28:31;;;;;;;14.18;10.68;;;;;;;;;;5066429;28;20237;-52
2023/05/16 02:30:58;;;;;;;12.98;10.95;;;;;;;;;;5069861;28;20278;-54
2023/05/16 02:33:25;;;;;;;12.80;11.43;;;;;;;;;;5062374;28;20242;-52
2023/05/16 02:35:54;;;;;;;10.75;9.77;;;;;;;;;;5062532;28;20235;-52
2023/05/16 02:38:20;;;;;;;15.32;11.20;;;;;;;;;;5056959;28;20227;-53
2023/05/16 02:40:47;;;;;;;12.75;11.10;;;;;;;;;;5061609;28;20314;-52
2023/05/16 02:43:14;;;;;;;11.32;10.32;;;;;;;;;;5058650;28;20226;-53
2023/05/16 02:45:40;;;;;;;11.45;9.98;;;;;;;;;;5053246;28;20305;-52
2023/05/16 02:48:07;;;;;;;12.65;10.45;;;;;;;;;;5053578;28;20228;-51
2023/05/16 02:50:34;;;;;;;11.00;10.00;;;;;;;;;;5047359;28;20259;-52
2023/05/16 02:53:02;;;;;;;11.35;10.25;;;;;;;;;;5054322;28;20231;-52
2023/05/16 02:55:29;;;;;;;11.90;10.80;;;;;;;;;;5065313;28;20242;-58
2023/05/16 02:57:56;;;;;;;12.43;11.18;;;;;;;;;;5063175;28;20328;-57
2023/05/16 03:00:22;;;;;;;12.45;11.20;;;;;;;;;;5065030;28;20251;-55
2023/05/16 03:02:49;;;;;;;13.80;11.57;;;;;;;;;;5071130;28;20230;-55
2023/05/16 03:05:15;;;;;;;11.73;10.70;;;;;;;;;;5058241;28;20232;-53
2023/05/16 03:07:42;;;;;;;13.55;12.13;;;;;;;;;;5067072;28;20254;-51
2023/05/16 03:10:10;;;;;;;12.40;11.30;;;;;;;;;;5064425;28;20234;-58
2023/05/16 03:12:37;;;;;;;17.83;11.63;;;;;;;;;;5054724;28;20235;-55
2023/05/16 03:15:04;;;;;;;12.98;10.88;;;;;;;;;;5056983;28;20234;-52
2023/05/16 03:17:31;;;;;;;12.88;11.57;;;;;;;;;;5052514;28;20712;-53
2023/05/16 03:19:58;;;;;;;13.48;12.18;;;;;;;;;;5048909;28;20227;-52
2023/05/16 03:22:24;;;;;;;13.13;11.90;;;;;;;;;;5049452;28;20242;-51
2023/05/16 03:24:51;;;;;;;13.88;12.48;;;;;;;;;;5064634;28;20632;-53
2023/05/16 03:27:19;;;;;;;12.75;11.43;;;;;;;;;;5055112;28;20261;-53
2023/05/16 03:29:46;;;;;;;13.48;12.07;;;;;;;;;;5065279;28;20223;-51
2023/05/16 03:32:12;;;;;;;17.25;12.27;;;;;;;;;;5049289;28;20306;-54
2023/05/16 03:34:39;;;;;;;14.95;13.35;;;;;;;;;;5056704;28;20236;-53
2023/05/16 03:37:06;;;;;;;12.43;11.32;;;;;;;;;;5057889;28;20242;-53
2023/05/16 03:39:32;;;;;;;15.07;13.52;;;;;;;;;;5062815;28;20658;-52
2023/05/16 03:41:59;;;;;;;13.65;11.90;;;;;;;;;;5059965;28;20348;-53
2023/05/16 03:44:27;;;;;;;13.43;11.35;;;;;;;;;;5068634;28;20802;-52
2023/05/16 03:46:54;;;;;;;16.67;12.68;;;;;;;;;;5054523;28;20241;-53
2023/05/16 03:49:25;;;;;;;13.30;12.07;;;;;;;;;;5055379;28;20326;-52
2023/05/16 03:51:51;;;;;;;17.95;12.30;;;;;;;;;;5057343;28;20246;-53
2023/05/16 03:54:18;;;;;;;13.52;12.23;;;;;;;;;;5066148;28;20555;-53
2023/05/16 03:56:44;;;;;;;14.50;12.98;;;;;;;;;;5063244;28;20239;-55
2023/05/16 03:59:11;;;;;;;16.98;11.90;;;;;;;;;;5064274;28;20248;-53
2023/05/16 04:01:38;;;;;;;12.60;11.30;;;;;;;;;;5062456;28;20227;-52
2023/05/16 04:04:05;;;;;;;13.77;12.45;;;;;;;;;;5070332;28;20234;-53
2023/05/16 04:06:33;;;;;;;14.70;13.15;;;;;;;;;;5070558;28;20292;-52
2023/05/16 04:08:59;;;;;;;15.73;13.88;;;;;;;;;;5061509;28;20239;-53
2023/05/16 04:11:26;;;;;;;16.60;13.02;;;;;;;;;;5062389;28;20235;-52
2023/05/16 04:13:53;;;;;;;14.32;12.90;;;;;;;;;;5067651;28;20292;-52
2023/05/16 04:16:20;;;;;;;16.17;12.98;;;;;;;;;;5059723;28;20258;-53
2023/05/16 04:18:47;;;;;;;16.00;14.35;;;;;;;;;;5061683;28;20241;-52
2023/05/16 04:21:14;;;;;;;21.80;14.15;;;;;;;;;;5052669;28;20585;-52
2023/05/16 04:23:40;;;;;;;16.25;13.65;;;;;;;;;;5065339;28;20595;-52
2023/05/16 04:26:07;;;;;;;15.05;13.07;;;;;;;;;;5058446;28;20249;-53
2023/05/16 04:28:33;;;;;;;15.98;14.15;;;;;;;;;;5063253;28;20323;-54
2023/05/16 04:31:00;;;;;;;15.52;13.93;;;;;;;;;;5057917;28;20614;-53
2023/05/16 04:33:27;;;;;;;14.70;13.15;;;;;;;;;;5049963;28;20248;-51
2023/05/16 04:35:56;;;;;;;19.27;14.68;;;;;;;;;;5052138;28;20319;-52
2023/05/16 04:38:23;;;;;;;15.32;13.63;;;;;;;;;;5048475;28;20352;-52
2023/05/16 04:40:50;;;;;;;15.23;13.63;;;;;;;;;;5058725;28;20226;-52
2023/05/16 04:43:16;;;;;;;14.77;13.40;;;;;;;;;;5058241;28;20735;-53
2023/05/16 04:45:42;;;;;;;15.00;13.38;;;;;;;;;;5058986;28;20223;-53
2023/05/16 04:48:10;;;;;;;15.60;14.00;;;;;;;;;;5059850;28;20239;-52
2023/05/16 04:50:36;;;;;;;16.58;14.27;;;;;;;;;;5056602;28;20231;-52
2023/05/16 04:53:04;;;;;;;14.02;12.57;;;;;;;;;;5056378;28;20828;-55
2023/05/16 04:55:30;;;;;;;26.00;14.95;;;;;;;;;;5061404;28;20263;-52
2023/05/16 04:57:57;;;;;;;13.25;11.85;;;;;;;;;;5060967;28;20740;-53
2023/05/16 05:00:23;;;;;;;14.23;12.73;;;;;;;;;;5058437;28;20288;-52
2023/05/16 05:02:50;;;;;;;14.35;12.80;;;;;;;;;;5057553;28;20239;-52
2023/05/16 05:05:16;;;;;;;20.15;13.77;;;;;;;;;;5061094;28;20227;-52
2023/05/16 05:07:42;;;;;;;14.23;12.88;;;;;;;;;;5055142;28;20938;-52
2023/05/16 05:10:11;;;;;;;14.87;13.30;;;;;;;;;;5060705;28;20321;-53
2023/05/16 05:12:37;;;;;;;14.32;12.90;;;;;;;;;;5057451;28;20246;-54
2023/05/16 05:15:04;;;;;;;14.50;13.00;;;;;;;;;;5057473;28;20652;-53
2023/05/16 05:17:30;;;;;;;13.05;11.10;;;;;;;;;;5069530;28;20318;-53
2023/05/16 05:19:57;;;;;;;16.75;14.52;;;;;;;;;;5068586;28;20234;-52
2023/05/16 05:22:23;;;;;;;15.30;12.88;;;;;;;;;;5064264;28;20612;-53
2023/05/16 05:24:49;;;;;;;16.52;14.35;;;;;;;;;;5071171;28;20314;-52
2023/05/16 05:27:17;;;;;;;13.63;12.33;;;;;;;;;;5064105;28;20227;-53
2023/05/16 05:29:44;;;;;;;17.43;13.27;;;;;;;;;;5067099;28;20769;-53
2023/05/16 05:32:10;;;;;;;15.88;13.20;;;;;;;;;;5058443;28;20259;-53
2023/05/16 05:34:36;;;;;;;14.98;13.48;;;;;;;;;;5061043;28;20297;-53
2023/05/16 05:37:03;;;;;;;15.73;12.90;;;;;;;;;;5060446;28;20656;-52
2023/05/16 05:39:30;;;;;;;12.98;11.57;;;;;;;;;;5061425;28;20243;-53
2023/05/16 05:41:57;;;;;;;16.25;11.63;;;;;;;;;;5066391;28;20318;-52
2023/05/16 05:44:25;;;;;;;16.25;12.68;;;;;;;;;;5048411;28;20261;-53
2023/05/16 05:46:51;;;;;;;13.50;11.40;;;;;;;;;;5054020;28;20874;-52
2023/05/16 05:49:18;;;;;;;11.73;10.53;;;;;;;;;;5060054;28;20218;-53
2023/05/16 05:51:44;;;;;;;11.40;9.27;;;;;;;;;;5060473;28;20407;-53
2023/05/16 05:54:10;;;;;;;11.45;9.15;;;;;;;;;;5060442;28;20318;-52
2023/05/16 05:56:37;;;;;;;10.10;9.00;;;;;;;;;;5055675;28;20231;-52
2023/05/16 05:59:03;;;;;;;10.63;8.70;;;;;;;;;;5052837;28;20239;-52
2023/05/16 06:01:31;;;;;;;9.10;8.05;;;;;;;;;;5058727;28;20865;-52
2023/05/16 06:03:57;;;;;;;11.02;9.20;;;;;;;;;;5062294;28;20769;-54
2023/05/16 06:06:24;;;;;;;9.95;8.95;;;;;;;;;;5058578;28;20623;-53
2023/05/16 06:08:50;;;;;;;10.15;9.13;;;;;;;;;;5058198;28;20227;-52
2023/05/16 06:11:16;;;;;;;9.35;8.43;;;;;;;;;;5065424;28;20301;-52
2023/05/16 06:13:43;;;;;;;9.63;8.80;;;;;;;;;;5068120;28;20238;-53
2023/05/16 06:16:09;;;;;;;9.30;8.48;;;;;;;;;;5066487;28;20234;-52
2023/05/16 06:18:37;;;;;;;9.82;8.90;;;;;;;;;;5053724;28;21094;-53
2023/05/16 06:21:03;;;;;;;8.90;8.13;;;;;;;;;;5073918;28;20228;-52
2023/05/16 06:23:30;;;;;;;8.88;8.05;;;;;;;;;;5063237;28;20337;-53
2023/05/16 06:25:56;;;;;;;11.30;9.23;;;;;;;;;;5067499;28;20262;-53
2023/05/16 06:28:23;;;;;;;11.30;8.48;;;;;;;;;;5056097;28;20736;-53
2023/05/16 06:30:50;;;;;;;9.77;8.43;;;;;;;;;;5051514;28;20248;-53
2023/05/16 06:33:17;;;;;;;7.80;6.68;;;;;;;;;;5057728;28;20243;-55
2023/05/16 06:35:45;;;;;;;7.50;6.78;;;;;;;;;;5065501;28;20255;-54
2023/05/16 06:38:11;;;;;;;8.50;7.03;;;;;;;;;;5063671;28;20284;-53
2023/05/16 06:40:37;;;;;;;8.95;7.20;;;;;;;;;;5066847;28;20796;-52
2023/05/16 06:43:04;;;;;;;11.45;7.30;;;;;;;;;;5059713;28;20246;-53
2023/05/16 06:45:30;;;;;;;9.07;6.85;;;;;;;;;;5057334;28;20231;-54
2023/05/16 06:47:57;;;;;;;8.77;6.38;;;;;;;;;;5050999;28;20318;-52
2023/05/16 06:50:23;;;;;;;7.55;6.85;;;;;;;;;;5048265;28;20243;-52
2023/05/16 06:52:51;;;;;;;8.05;6.10;;;;;;;;;;5058956;28;20235;-54
2023/05/16 06:55:17;;;;;;;7.03;6.32;;;;;;;;;;5055666;28;20338;-54
2023/05/16 06:57:44;;;;;;;7.50;6.45;;;;;;;;;;5055044;28;20310;-53
2023/05/16 07:00:10;;;;;;;6.53;5.72;;;;;;;;;;5058816;28;20227;-53
2023/05/16 07:02:37;;;;;;;6.65;6.05;;;;;;;;;;5045411;28;20245;-52
2023/05/16 07:05:03;;;;;;;7.22;5.85;;;;;;;;;;5053859;28;20625;-55
2023/05/16 07:07:30;;;;;;;6.03;5.35;;;;;;;;;;5056483;28;20639;-53
2023/05/16 07:09:57;;;;;;;5.95;5.43;;;;;;;;;;5056071;28;20256;-52
2023/05/16 07:12:24;;;;;;;10.48;5.50;;;;;;;;;;5061301;28;20315;-53
2023/05/16 07:14:50;;;;;;;5.38;4.88;;;;;;;;;;5063812;28;20319;-53
2023/05/16 07:17:17;;;;;;;6.15;5.20;;;;;;;;;;5058001;28;20333;-52
2023/05/16 07:19:43;;;;;;;9.68;5.15;;;;;;;;;;5049644;28;20318;-52
2023/05/16 07:22:09;;;;;;;6.70;6.03;;;;;;;;;;5060443;28;20244;-53
2023/05/16 07:24:36;;;;;;;5.65;4.32;;;;;;;;;;5056706;28;20243;-53
2023/05/16 07:27:04;;;;;;;5.35;4.82;;;;;;;;;;5055567;28;20227;-53
2023/05/16 07:29:30;;;;;;;4.93;4.43;;;;;;;;;;5057713;28;20239;-55
2023/05/16 07:31:56;;;;;;;4.85;4.35;;;;;;;;;;5057733;28;20319;-53
2023/05/16 07:34:23;;;;;;;5.70;5.10;;;;;;;;;;5058974;28;22703;-53
2023/05/16 07:36:49;;;;;;;8.13;5.20;;;;;;;;;;5056912;28;20231;-53
2023/05/16 07:39:16;;;;;;;5.55;4.55;;;;;;;;;;5062067;28;20266;-52
2023/05/16 07:41:42;;;;;;;4.47;4.07;;;;;;;;;;5060067;28;20314;-53
2023/05/16 07:44:10;;;;;;;4.22;3.78;;;;;;;;;;5056478;28;20236;-53
2023/05/16 07:46:36;;;;;;;5.03;4.07;;;;;;;;;;5051403;28;20235;-52
2023/05/16 07:49:03;;;;;;;4.18;3.65;;;;;;;;;;5064346;28;20231;-53
2023/05/16 07:51:29;;;;;;;4.45;3.45;;;;;;;;;;5052651;28;20661;-52
2023/05/16 07:53:55;;;;;;;4.35;3.17;;;;;;;;;;5050473;28;20234;-53
2023/05/16 07:56:22;;;;;;;3.88;3.08;;;;;;;;;;5061844;28;20229;-51
2023/05/16 07:58:49;;;;;;;3.70;3.35;;;;;;;;;;5056841;28;20322;-52
2023/05/16 08:01:17;;;;;;;7.22;3.33;;;;;;;;;;5057280;28;20223;-53
2023/05/16 08:03:43;;;;;;;3.60;3.28;;;;;;;;;;5059178;28;20235;-52
2023/05/16 08:06:10;;;;;;;2.88;2.65;;;;;;;;;;5063622;28;20231;-54
2023/05/16 08:08:36;;;;;;;7.05;3.95;;;;;;;;;;5068369;28;20230;-52
2023/05/16 08:11:04;;;;;;;4.03;2.83;;;;;;;;;;5050571;28;20235;-53
2023/05/16 08:13:31;;;;;;;5.63;3.40;;;;;;;;;;5054543;28;20239;-53
2023/05/16 08:15:57;;;;;;;3.10;2.90;;;;;;;;;;5063436;28;20323;-51
2023/05/16 08:18:25;;;;;;;3.40;3.10;;;;;;;;;;5060249;28;20288;-52
2023/05/16 08:20:51;;;;;;;4.18;3.00;;;;;;;;;;5055396;28;20231;-55
2023/05/16 08:23:17;;;;;;;2.85;2.65;;;;;;;;;;5056169;28;20496;-54
2023/05/16 08:25:44;;;;;;;3.63;2.92;;;;;;;;;;5055494;28;20254;-53
2023/05/16 08:28:10;;;;;;;9.18;4.07;;;;;;;;;;5054007;28;20675;-53
2023/05/16 08:30:37;;;;;;;3.20;2.55;;;;;;;;;;5057138;28;20227;-53
2023/05/16 08:33:04;;;;;;;6.40;2.92;;;;;;;;;;5059902;28;20670;-52
2023/05/16 08:35:32;;;;;;;3.78;2.70;;;;;;;;;;5051246;28;20302;-52
2023/05/16 08:37:58;;;;;;;12.30;3.33;;;;;;;;;;5050016;28;20235;-53
2023/05/16 08:40:26;;;;;;;6.22;2.88;;;;;;;;;;5057940;28;21124;-52
2023/05/16 08:42:53;;;;;;;6.97;3.58;;;;;;;;;;5059709;28;20231;-53
2023/05/16 08:45:20;;;;;;;2.50;2.28;;;;;;;;;;5055228;28;20234;-53
2023/05/16 08:47:47;;;;;;;4.85;1.98;;;;;;;;;;5057598;28;20219;-53
2023/05/16 08:50:14;;;;;;;2.10;1.80;;;;;;;;;;5061249;28;20228;-53
2023/05/16 08:52:44;;;;;;;2.85;2.20;;;;;;;;;;5056103;28;20314;-52
2023/05/16 08:55:11;;;;;;;5.00;2.97;;;;;;;;;;5066911;28;20255;-52
2023/05/16 08:57:38;;;;;;;3.30;2.25;;;;;;;;;;5061300;28;20235;-52
2023/05/16 09:00:10;;;;;;;3.65;2.22;;;;;;;;;;5056147;28;20329;-52
2023/05/16 09:02:37;;;;;;;3.65;1.88;;;;;;;;;;5050452;28;20223;-54
2023/05/16 09:05:04;;;;;;;2.53;1.88;;;;;;;;;;5064621;28;20239;-53
2023/05/16 09:07:31;;;;;;;1.92;1.70;;;;;;;;;;5058883;28;20223;-54
2023/05/16 09:09:59;;;;;;;3.88;2.17;;;;;;;;;;5056390;28;20235;-53
2023/05/16 09:12:25;;;;;;;6.82;1.80;;;;;;;;;;5052254;28;20533;-54
2023/05/16 09:14:52;;;;;;;2.33;2.10;;;;;;;;;;5054581;28;20238;-52
2023/05/16 09:17:18;;;;;;;3.90;2.10;;;;;;;;;;5059903;28;20227;-53
2023/05/16 09:19:46;;;;;;;2.20;1.58;;;;;;;;;;5069031;28;20239;-53
2023/05/16 09:22:14;;;;;;;3.15;1.90;;;;;;;;;;5063406;28;20748;-53
2023/05/16 09:24:40;;;;;;;3.58;2.15;;;;;;;;;;5058283;28;20251;-54
2023/05/16 09:27:09;;;;;;;3.35;1.80;;;;;;;;;;5064079;28;20228;-53
2023/05/16 09:29:35;;;;;;;4.30;1.75;;;;;;;;;;5062634;28;20235;-52
2023/05/16 09:32:05;;;;;;;1.98;1.73;;;;;;;;;;5050956;28;20235;-52
2023/05/16 09:34:31;;;;;;;3.70;1.65;;;;;;;;;;5061377;28;20259;-52
2023/05/16 09:36:59;;;;;;;3.03;1.80;;;;;;;;;;5045534;28;20232;-54
2023/05/16 09:39:27;;;;;;;2.65;1.75;;;;;;;;;;5071223;28;20254;-53
2023/05/16 09:41:53;;;;;;;1.60;1.50;;;;;;;;;;5069150;28;20317;-53
2023/05/16 09:44:21;;;;;;;5.95;2.35;;;;;;;;;;5061139;28;20224;-54
2023/05/16 09:46:47;;;;;;;5.32;2.25;;;;;;;;;;5065578;28;20235;-53
2023/05/16 09:49:14;;;;;;;4.18;2.08;;;;;;;;;;5064682;28;20223;-53
2023/05/16 09:51:40;;;;;;;4.20;1.92;;;;;;;;;;5065111;28;20344;-53
2023/05/16 09:54:07;;;;;;;3.80;1.90;;;;;;;;;;5054363;28;20310;-53
2023/05/16 09:56:34;;;;;;;2.50;1.60;;;;;;;;;;5076831;28;20227;-54
2023/05/16 09:59:00;;;;;;;2.85;1.90;;;;;;;;;;5062200;28;20250;-53
2023/05/16 10:01:28;;;;;;;4.55;2.40;;;;;;;;;;5065882;28;20258;-52
2023/05/16 10:03:54;;;;;;;4.80;2.20;;;;;;;;;;5045608;28;20232;-53
2023/05/16 10:06:21;;;;;;;5.38;2.60;;;;;;;;;;5055517;28;20231;-52
2023/05/16 10:08:48;;;;;;;3.55;1.67;;;;;;;;;;5052397;28;20226;-52
2023/05/16 10:11:15;;;;;;;4.93;2.58;;;;;;;;;;5059054;28;20314;-53
2023/05/16 10:13:43;;;;;;;3.45;1.90;;;;;;;;;;5066384;28;20249;-53
2023/05/16 10:16:11;;;;;;;5.03;2.95;;;;;;;;;;5063188;28;20261;-53
2023/05/16 10:18:40;;;;;;;2.55;2.10;;;;;;;;;;5063858;28;20231;-53
2023/05/16 10:21:07;;;;;;;3.88;2.00;;;;;;;;;;5063002;28;20228;-54
2023/05/16 10:23:34;;;;;;;3.90;2.00;;;;;;;;;;5047855;28;20314;-53
2023/05/16 10:26:02;;;;;;;5.15;2.58;;;;;;;;;;5062370;28;20911;-53
2023/05/16 10:28:29;;;;;;;5.57;2.63;;;;;;;;;;5063527;28;20322;-53
2023/05/16 10:30:55;;;;;;;3.40;2.25;;;;;;;;;;5055939;28;20227;-54
2023/05/16 10:33:22;;;;;;;6.07;2.60;;;;;;;;;;5063052;28;20235;-54
2023/05/16 10:35:49;;;;;;;4.13;2.30;;;;;;;;;;5058090;28;20228;-53
2023/05/16 10:38:17;;;;;;;2.53;2.33;;;;;;;;;;5057798;28;20235;-54
2023/05/16 10:40:43;;;;;;;3.92;2.10;;;;;;;;;;5059097;28;20775;-52
2023/05/16 10:43:10;;;;;;;8.60;2.58;;;;;;;;;;5060575;28;20233;-52
2023/05/16 10:45:40;;;;;;;5.60;2.30;;;;;;;;;;5059689;28;20799;-53
2023/05/16 10:48:08;;;;;;;6.05;2.75;;;;;;;;;;5051701;28;20302;-53
2023/05/16 10:50:35;;;;;;;23.58;3.78;;;;;;;;;;5062403;28;20327;-52
2023/05/16 10:53:16;;;;;;;8.70;3.13;;;;;;;;;;5058667;28;20243;-53
2023/05/16 10:55:50;;;;;;;8.50;3.00;;;;;;;;;;5053190;28;20229;-54
2023/05/16 10:58:24;;;;;;;5.22;2.58;;;;;;;;;;5049069;28;20234;-52
2023/05/16 11:01:10;;;;;;;5.32;2.15;;;;;;;;;;5057827;28;20322;-52
2023/05/16 11:03:36;;;;;;;5.50;2.63;;;;;;;;;;5055680;28;20310;-56
2023/05/16 11:06:03;;;;;;;5.68;2.75;;;;;;;;;;5065925;28;20960;-53
2023/05/16 11:08:31;;;;;;;2.45;1.98;;;;;;;;;;5047490;28;20342;-53
2023/05/16 11:11:12;;;;;;;5.30;2.38;;;;;;;;;;5063877;28;20325;-53
2023/05/16 11:13:53;;;;;;;2.63;2.00;;;;;;;;;;5059153;28;20681;-51
2023/05/16 11:16:28;;;;;;;5.65;2.42;;;;;;;;;;5065624;28;20704;-52
2023/05/16 11:19:04;;;;;;;4.60;2.15;;;;;;;;;;5069891;28;20298;-53
2023/05/16 11:21:45;;;;;;;6.07;2.38;;;;;;;;;;5061245;28;20922;-54
2023/05/16 11:24:31;;;;;;;7.40;2.17;;;;;;;;;;5065316;27;20233;-53
2023/05/16 11:26:57;;;;;;;8.77;3.03;;;;;;;;;;5068474;27;20673;-53
2023/05/16 11:29:24;;;;;;;7.78;1.92;;;;;;;;;;5067559;27;20321;-52
2023/05/16 11:31:50;;;;;;;7.57;2.53;;;;;;;;;;5053836;28;20334;-52
2023/05/16 11:34:17;;;;;;;4.68;2.17;;;;;;;;;;5057156;28;20235;-52
2023/05/16 11:36:44;;;;;;;6.28;2.17;;;;;;;;;;5065567;28;20230;-54
2023/05/16 11:39:11;;;;;;;5.90;2.00;;;;;;;;;;5065314;28;20320;-53
2023/05/16 11:41:38;;;;;;;3.83;2.05;;;;;;;;;;5053557;28;20228;-54
2023/05/16 11:44:05;;;;;;;10.10;3.20;;;;;;;;;;5065502;28;20340;-52
2023/05/16 11:46:33;;;;;;;4.95;1.85;;;;;;;;;;5055665;28;20258;-56
2023/05/16 11:48:59;;;;;;;7.88;2.53;;;;;;;;;;5047483;28;20260;-53
2023/05/16 11:51:26;;;;;;;3.85;2.10;;;;;;;;;;5065102;28;20724;-53
2023/05/16 11:53:53;;;;;;;4.32;2.40;;;;;;;;;;5062232;28;20236;-53
2023/05/16 11:56:21;;;;;;;3.60;1.90;;;;;;;;;;5056248;28;20220;-54
2023/05/16 11:58:49;;;;;;;5.78;1.73;;;;;;;;;;5060508;28;20239;-53
2023/05/16 12:01:15;;;;;;;4.80;2.08;;;;;;;;;;5060388;28;20230;-54
2023/05/16 12:03:42;;;;;;;7.97;2.50;;;;;;;;;;5067994;28;20239;-53
2023/05/16 12:06:09;;;;;;;3.38;1.50;;;;;;;;;;5075837;28;20227;-54
2023/05/16 12:08:35;;;;;;;5.88;2.00;;;;;;;;;;5071788;28;20231;-54
2023/05/16 12:11:01;;;;;;;3.83;2.17;;;;;;;;;;5078122;28;20326;-53
2023/05/16 12:13:28;;;;;;;4.57;2.17;;;;;;;;;;5079223;28;20274;-53
2023/05/16 12:15:57;;;;;;;3.13;1.58;;;;;;;;;;5069209;28;20629;-54
2023/05/16 12:18:24;;;;;;;9.85;1.98;;;;;;;;;;5060087;28;20228;-53
2023/05/16 12:20:51;;;;;;;4.85;1.77;;;;;;;;;;5057620;28;20708;-53
2023/05/16 12:23:17;;;;;;;4.72;2.17;;;;;;;;;;5064296;28;20318;-54
2023/05/16 12:25:45;;;;;;;4.43;1.75;;;;;;;;;;5061481;28;20666;-53
2023/05/16 12:28:12;;;;;;;8.57;2.47;;;;;;;;;;5061484;28;20241;-54
2023/05/16 12:30:40;;;;;;;5.93;1.80;;;;;;;;;;5064613;28;20235;-54
2023/05/16 12:33:10;;;;;;;11.13;1.92;;;;;;;;;;5064393;28;20709;-54
2023/05/16 12:35:37;;;;;;;3.50;1.63;;;;;;;;;;5067298;28;20227;-53
2023/05/16 12:38:06;;;;;;;6.40;1.92;;;;;;;;;;5063442;27;20330;-53
2023/05/16 12:40:33;;;;;;;4.07;1.83;;;;;;;;;;5060599;27;20458;-53
2023/05/16 12:42:59;;;;;;;6.43;2.38;;;;;;;;;;5064656;28;20246;-54
2023/05/16 12:45:26;;;;;;;4.72;1.77;;;;;;;;;;5067580;28;20239;-54
2023/05/16 12:47:53;;;;;;;8.25;1.83;;;;;;;;;;5069361;28;20234;-54
2023/05/16 12:50:21;;;;;;;9.73;1.90;;;;;;;;;;5067662;28;20226;-53
2023/05/16 12:52:49;;;;;;;3.30;1.50;;;;;;;;;;5074098;28;20664;-54
2023/05/16 12:55:15;;;;;;;5.90;2.13;;;;;;;;;;5072371;28;20222;-54
2023/05/16 12:57:43;;;;;;;9.10;1.98;;;;;;;;;;5069082;28;20341;-53
2023/05/16 13:00:10;;;;;;;2.92;1.88;;;;;;;;;;5067685;28;20237;-52
2023/05/16 13:02:37;;;;;;;5.75;2.28;;;;;;;;;;5057819;28;20266;-54
2023/05/16 13:05:03;;;;;;;2.28;1.70;;;;;;;;;;5067406;28;20247;-52
2023/05/16 13:07:31;;;;;;;5.43;1.95;;;;;;;;;;5056014;28;20310;-54
2023/05/16 13:09:57;;;;;;;7.93;1.80;;;;;;;;;;5056742;28;20245;-53
2023/05/16 13:12:25;;;;;;;3.05;1.80;;;;;;;;;;5069394;28;20234;-53
2023/05/16 13:14:52;;;;;;;5.68;1.52;;;;;;;;;;5067155;28;20664;-52
2023/05/16 13:17:18;;;;;;;7.45;1.98;;;;;;;;;;5076842;28;20249;-54
2023/05/16 13:19:45;;;;;;;3.50;1.98;;;;;;;;;;5066328;28;20670;-52
2023/05/16 13:22:11;;;;;;;3.63;1.98;;;;;;;;;;5067375;28;20238;-56
2023/05/16 13:24:39;;;;;;;4.05;1.88;;;;;;;;;;5061518;28;20282;-53
2023/05/16 13:27:05;;;;;;;3.33;1.80;;;;;;;;;;5066616;28;20684;-53
2023/05/16 13:29:32;;;;;;;9.85;1.88;;;;;;;;;;5065550;28;20227;-52
2023/05/16 13:31:58;;;;;;;4.68;1.83;;;;;;;;;;5069202;28;20246;-53
2023/05/16 13:34:25;;;;;;;6.05;1.60;;;;;;;;;;5051520;28;20772;-52
2023/05/16 13:36:51;;;;;;;3.33;1.27;;;;;;;;;;5057198;28;20615;-54
2023/05/16 13:39:18;;;;;;;5.68;1.50;;;;;;;;;;5067215;28;20223;-53
2023/05/16 13:41:47;;;;;;;4.78;1.75;;;;;;;;;;5077677;28;20231;-53
2023/05/16 13:44:13;;;;;;;6.72;1.65;;;;;;;;;;5082042;28;20254;-54
2023/05/16 13:46:39;;;;;;;3.92;1.55;;;;;;;;;;5088357;28;20333;-53
2023/05/16 13:49:06;;;;;;;8.25;2.47;;;;;;;;;;5083181;28;20322;-52
2023/05/16 13:51:32;;;;;;;5.35;1.65;;;;;;;;;;5062084;28;20330;-57
2023/05/16 13:53:58;;;;;;;10.70;1.88;;;;;;;;;;5060830;28;20852;-52
2023/05/16 13:56:25;;;;;;;7.88;1.70;;;;;;;;;;5060905;28;20310;-53
2023/05/16 13:58:53;;;;;;;5.07;1.15;;;;;;;;;;5044118;28;20260;-52
2023/05/16 14:01:20;;;;;;;6.95;1.27;;;;;;;;;;5052378;28;20235;-53
2023/05/16 14:03:46;;;;;;;6.18;1.70;;;;;;;;;;5054131;28;20290;-53
2023/05/16 14:06:12;;;;;;;5.75;1.90;;;;;;;;;;5065430;28;20825;-54
2023/05/16 14:08:39;;;;;;;5.18;1.48;;;;;;;;;;5062168;27;20234;-52
2023/05/16 14:11:05;;;;;;;4.88;1.50;;;;;;;;;;5058001;28;20255;-54
2023/05/16 14:13:32;;;;;;;2.40;1.08;;;;;;;;;;5061612;28;20741;-53
2023/05/16 14:16:01;;;;;;;3.63;1.30;;;;;;;;;;5055870;28;20228;-52
2023/05/16 14:18:27;;;;;;;5.13;1.42;;;;;;;;;;5058456;28;20713;-54
2023/05/16 14:20:55;;;;;;;3.47;1.10;;;;;;;;;;5066826;28;20322;-56
2023/05/16 14:23:21;;;;;;;3.65;1.20;;;;;;;;;;5076037;28;20235;-53
2023/05/16 14:25:48;;;;;;;3.17;1.25;;;;;;;;;;5066904;28;20313;-53
2023/05/16 14:28:14;;;;;;;1.75;0.85;;;;;;;;;;5066908;28;20227;-55
2023/05/16 14:30:41;;;;;;;3.15;1.63;;;;;;;;;;5059534;28;20343;-57
2023/05/16 14:33:08;;;;;;;4.40;1.00;;;;;;;;;;5066722;28;20291;-53